Time;durP1;ratioP1;P1;durP2;ratioP2;P2;SDS_P1;SDS_P2;PMS_P1;PMS_P2;Temp;Humidity;BMP_temperature;BMP_pressure;BME280_temperature;BME280_humidity;BME280_pressure;Samples;Min_cycle;Max_cycle;Signal;HPM_P1;HPM_P2
2022/09/03 00:00:42;;;;;;;10.40;10.10;;;15.30;99.90;;;;;;4997324;28;20297;-78
2022/09/03 00:03:19;;;;;;;10.10;9.80;;;15.20;99.90;;;;;;5010850;28;20244;-78
2022/09/03 00:05:58;;;;;;;10.27;9.98;;;15.20;99.90;;;;;;5000503;28;20243;-78
2022/09/03 00:08:37;;;;;;;10.40;10.10;;;15.20;99.90;;;;;;5003231;28;20242;-78
2022/09/03 00:11:18;;;;;;;10.25;9.95;;;15.10;99.90;;;;;;5004376;28;20320;-77
2022/09/03 00:13:51;;;;;;;10.30;10.00;;;15.10;99.90;;;;;;5003596;28;20236;-79
2022/09/03 00:16:23;;;;;;;10.40;10.10;;;15.10;99.90;;;;;;5002190;28;20217;-78
2022/09/03 00:18:58;;;;;;;10.13;9.82;;;15.10;99.90;;;;;;5002589;28;20264;-79
2022/09/03 00:21:37;;;;;;;10.50;10.20;;;15.00;99.90;;;;;;5001997;28;20705;-79
2022/09/03 00:24:10;;;;;;;10.15;9.85;;;15.00;99.90;;;;;;5001279;28;20323;-78
2022/09/03 00:26:47;;;;;;;10.30;10.00;;;15.00;99.90;;;;;;4999653;28;20344;-78
2022/09/03 00:29:18;;;;;;;10.45;10.15;;;14.90;99.90;;;;;;5001157;28;20259;-79
2022/09/03 00:31:53;;;;;;;10.38;10.07;;;14.90;99.90;;;;;;5001082;28;20237;-79
2022/09/03 00:34:32;;;;;;;10.18;9.88;;;14.90;99.90;;;;;;5001938;28;20228;-78
2022/09/03 00:37:04;;;;;;;10.20;9.90;;;14.80;99.90;;;;;;5002617;28;20225;-78
2022/09/03 00:39:32;;;;;;;10.30;10.00;;;14.80;99.90;;;;;;5003453;28;20240;-78
2022/09/03 00:42:30;;;;;;;10.30;10.00;;;14.80;99.90;;;;;;5003034;28;20225;-79
2022/09/03 00:45:25;;;;;;;10.30;10.00;;;14.70;99.90;;;;;;5001428;28;20241;-79
2022/09/03 00:48:12;;;;;;;10.25;9.95;;;14.70;99.90;;;;;;5001973;28;20221;-79
2022/09/03 00:50:59;;;;;;;10.30;10.00;;;14.60;99.90;;;;;;5003774;28;20315;-78
2022/09/03 00:53:46;;;;;;;10.35;10.05;;;14.50;99.90;;;;;;5003902;28;20312;-78
2022/09/03 00:56:24;;;;;;;10.37;10.07;;;14.50;99.90;;;;;;5003811;28;20220;-78
2022/09/03 00:59:11;;;;;;;10.40;10.10;;;14.50;99.90;;;;;;5003256;28;20300;-79
2022/09/03 01:01:49;;;;;;;10.40;10.10;;;14.50;99.90;;;;;;5001767;28;20288;-79
2022/09/03 01:04:36;;;;;;;10.30;10.00;;;14.50;99.90;;;;;;5002837;28;20323;-79
2022/09/03 01:10:19;;;;;;;10.10;9.80;;;14.40;99.90;;;;;;5000970;28;20232;-79
2022/09/03 01:12:58;;;;;;;10.10;9.80;;;14.40;99.90;;;;;;5001983;28;20231;-79
2022/09/03 01:15:37;;;;;;;10.13;9.83;;;14.40;99.90;;;;;;5000557;28;20237;-78
2022/09/03 01:18:22;;;;;;;10.10;9.80;;;14.40;99.90;;;;;;5001072;28;20239;-79
2022/09/03 01:21:10;;;;;;;10.40;10.10;;;14.30;99.90;;;;;;5001312;28;20220;-79
2022/09/03 01:24:31;;;;;;;10.27;9.97;;;14.30;99.90;;;;;;5000925;28;20233;-79
2022/09/03 01:27:19;;;;;;;10.17;9.87;;;14.20;99.90;;;;;;4998974;28;20239;-78
2022/09/03 01:30:06;;;;;;;10.40;10.10;;;14.20;99.90;;;;;;5000983;28;20236;-78
2022/09/03 01:32:44;;;;;;;10.23;9.93;;;14.10;99.90;;;;;;5001240;28;20224;-79
2022/09/03 01:35:23;;;;;;;10.30;10.00;;;14.10;99.90;;;;;;5000378;28;20251;-79
2022/09/03 01:38:09;;;;;;;10.20;9.90;;;14.10;99.90;;;;;;5000693;28;20232;-78
2022/09/03 01:40:49;;;;;;;10.20;9.90;;;14.10;99.90;;;;;;5000483;28;20292;-79
2022/09/03 01:43:35;;;;;;;10.20;9.90;;;14.00;99.90;;;;;;5001519;28;20280;-79
2022/09/03 01:46:13;;;;;;;10.40;10.10;;;14.00;99.90;;;;;;5000917;28;20229;-79
2022/09/03 01:48:50;;;;;;;10.10;9.80;;;14.00;99.90;;;;;;5001230;28;20245;-79
2022/09/03 01:51:22;;;;;;;10.10;9.80;;;14.00;99.90;;;;;;5000671;28;20311;-78
2022/09/03 01:54:26;;;;;;;10.27;9.97;;;13.90;99.90;;;;;;5000463;28;20220;-79
2022/09/03 01:57:21;;;;;;;10.30;10.00;;;13.90;99.90;;;;;;5000796;28;20232;-79
2022/09/03 01:59:58;;;;;;;9.80;9.50;;;13.80;99.90;;;;;;5000026;28;20241;-78
2022/09/03 02:02:40;;;;;;;9.90;9.60;;;13.80;99.90;;;;;;5000762;28;20224;-78
2022/09/03 02:05:15;;;;;;;10.10;9.80;;;13.80;99.90;;;;;;4999675;28;20353;-77
2022/09/03 02:07:45;;;;;;;9.97;9.67;;;13.70;99.90;;;;;;5000132;28;20270;-79
2022/09/03 02:10:16;;;;;;;9.83;9.53;;;13.70;99.90;;;;;;5000532;28;20284;-79
2022/09/03 02:12:52;;;;;;;9.53;9.23;;;13.60;99.90;;;;;;5000510;28;20240;-78
2022/09/03 02:15:24;;;;;;;9.87;9.57;;;13.60;99.90;;;;;;5002968;28;20604;-78
2022/09/03 02:18:00;;;;;;;9.70;9.40;;;13.60;99.90;;;;;;5003782;28;20241;-79
2022/09/03 02:20:29;;;;;;;9.70;9.40;;;13.50;99.90;;;;;;5003404;28;20276;-79
2022/09/03 02:22:58;;;;;;;10.00;9.70;;;13.50;99.90;;;;;;5003283;28;20243;-78
2022/09/03 02:25:37;;;;;;;9.90;9.60;;;13.50;99.90;;;;;;5002296;28;20247;-78
2022/09/03 02:28:06;;;;;;;9.83;9.53;;;13.40;99.90;;;;;;5002292;28;20251;-78
2022/09/03 02:30:36;;;;;;;10.03;9.73;;;13.40;99.90;;;;;;5003614;28;20240;-78
2022/09/03 02:33:17;;;;;;;9.80;9.50;;;13.40;99.90;;;;;;5003729;28;20236;-78
2022/09/03 02:35:46;;;;;;;9.80;9.50;;;13.30;99.90;;;;;;5002526;28;20239;-78
2022/09/03 02:38:16;;;;;;;9.70;9.40;;;13.30;99.90;;;;;;5003350;28;20237;-77
2022/09/03 02:40:44;;;;;;;9.70;9.40;;;13.30;99.90;;;;;;5003495;28;20236;-77
2022/09/03 02:43:26;;;;;;;9.50;9.20;;;13.30;99.90;;;;;;5002809;28;20229;-78
2022/09/03 02:46:01;;;;;;;9.33;9.03;;;13.20;99.90;;;;;;5002865;28;20221;-78
2022/09/03 02:48:33;;;;;;;9.77;9.47;;;13.20;99.90;;;;;;5003156;28;20246;-78
2022/09/03 02:51:00;;;;;;;9.60;9.30;;;13.20;99.90;;;;;;5003455;28;20241;-78
2022/09/03 02:53:30;;;;;;;9.60;9.30;;;13.10;99.90;;;;;;5002984;28;20315;-78
2022/09/03 02:56:01;;;;;;;9.60;9.30;;;13.10;99.90;;;;;;5002392;28;20228;-78
2022/09/03 02:58:30;;;;;;;9.70;9.40;;;13.00;99.90;;;;;;5003107;28;20253;-78
2022/09/03 03:00:58;;;;;;;9.60;9.30;;;13.00;99.90;;;;;;5003053;28;20232;-77
2022/09/03 03:03:26;;;;;;;9.80;9.50;;;13.00;99.90;;;;;;5002414;28;20241;-78
2022/09/03 03:06:05;;;;;;;9.70;9.40;;;12.90;99.90;;;;;;5002289;28;20232;-78
2022/09/03 03:08:34;;;;;;;9.73;9.43;;;12.90;99.90;;;;;;5002507;28;20244;-78
2022/09/03 03:11:04;;;;;;;10.00;9.70;;;12.90;99.90;;;;;;5002298;28;20325;-78
2022/09/03 03:13:34;;;;;;;9.70;9.40;;;12.90;99.90;;;;;;5001830;28;20240;-78
2022/09/03 03:16:05;;;;;;;9.60;9.30;;;12.90;99.90;;;;;;5002229;28;20244;-78
2022/09/03 03:18:33;;;;;;;9.70;9.40;;;12.90;99.90;;;;;;5002620;28;21065;-78
2022/09/03 03:21:11;;;;;;;9.90;9.60;;;12.90;99.90;;;;;;5003162;28;20303;-78
2022/09/03 03:23:40;;;;;;;9.70;9.40;;;12.80;99.90;;;;;;5001558;28;20228;-78
2022/09/03 03:26:10;;;;;;;9.93;9.63;;;12.90;99.90;;;;;;5000880;28;20226;-78
2022/09/03 03:28:41;;;;;;;9.90;9.60;;;12.80;99.90;;;;;;5000634;28;20239;-78
2022/09/03 03:31:10;;;;;;;9.60;9.30;;;12.80;99.90;;;;;;5002851;28;20353;-78
2022/09/03 03:33:38;;;;;;;10.00;9.70;;;12.90;99.90;;;;;;5002454;28;20237;-78
2022/09/03 03:36:16;;;;;;;9.73;9.43;;;12.90;99.90;;;;;;5001845;28;20231;-78
2022/09/03 03:38:45;;;;;;;9.80;9.50;;;12.90;99.90;;;;;;5002414;28;20256;-78
2022/09/03 03:41:16;;;;;;;9.40;9.10;;;12.90;99.90;;;;;;5001982;28;20323;-78
2022/09/03 03:43:44;;;;;;;9.60;9.30;;;12.90;99.90;;;;;;5002094;28;20320;-78
2022/09/03 03:46:13;;;;;;;9.43;9.13;;;12.80;99.90;;;;;;5001702;28;20296;-78
2022/09/03 03:48:43;;;;;;;9.63;9.33;;;12.80;99.90;;;;;;5002578;28;20331;-78
2022/09/03 03:51:23;;;;;;;9.37;9.07;;;12.80;99.90;;;;;;5002463;28;20327;-78
2022/09/03 03:54:00;;;;;;;9.40;9.10;;;12.80;99.90;;;;;;5003071;28;20272;-77
2022/09/03 03:56:30;;;;;;;9.40;9.10;;;12.70;99.90;;;;;;5003437;28;20244;-78
2022/09/03 03:58:59;;;;;;;9.80;9.50;;;12.70;99.90;;;;;;5003517;28;20236;-78
2022/09/03 04:01:28;;;;;;;9.63;9.33;;;12.60;99.90;;;;;;5002919;28;20264;-78
2022/09/03 04:03:57;;;;;;;9.60;9.30;;;12.60;99.90;;;;;;5002377;28;20251;-78
2022/09/03 04:09:14;;;;;;;9.20;8.90;;;12.60;99.90;;;;;;5002353;28;20324;-77
2022/09/03 04:11:43;;;;;;;9.37;9.07;;;12.60;99.90;;;;;;5002424;28;20288;-78
2022/09/03 04:14:12;;;;;;;9.20;8.90;;;12.60;99.90;;;;;;5002096;28;20240;-78
2022/09/03 04:16:42;;;;;;;9.33;9.03;;;12.60;99.90;;;;;;5001890;28;20217;-78
2022/09/03 04:19:11;;;;;;;9.23;8.93;;;12.50;99.90;;;;;;5002017;28;20323;-78
2022/09/03 04:24:28;;;;;;;9.60;9.30;;;12.50;99.90;;;;;;5000574;28;20270;-78
2022/09/03 04:26:57;;;;;;;9.80;9.50;;;12.50;99.90;;;;;;5000978;28;20232;-78
2022/09/03 04:29:29;;;;;;;9.20;8.90;;;12.50;99.90;;;;;;5001468;28;20240;-80
2022/09/03 04:34:43;;;;;;;9.30;9.00;;;12.50;99.90;;;;;;4998006;28;20233;-78
2022/09/03 04:37:25;;;;;;;9.30;9.00;;;12.50;99.90;;;;;;5001334;28;20233;-78
2022/09/03 04:39:53;;;;;;;9.50;9.20;;;12.40;99.90;;;;;;5000988;28;20263;-81
2022/09/03 04:42:22;;;;;;;9.20;8.90;;;12.40;99.90;;;;;;5001390;28;20237;-77
2022/09/03 04:44:52;;;;;;;9.17;8.87;;;12.40;99.90;;;;;;5000796;28;20251;-80
2022/09/03 04:47:21;;;;;;;9.30;9.00;;;12.40;99.90;;;;;;5001452;28;20323;-78
2022/09/03 04:49:50;;;;;;;9.57;9.27;;;12.40;99.90;;;;;;5001632;28;20239;-78
2022/09/03 04:52:28;;;;;;;9.50;9.20;;;12.40;99.90;;;;;;5001802;28;20284;-78
2022/09/03 04:54:58;;;;;;;9.37;9.07;;;12.50;99.90;;;;;;5001997;28;20247;-78
2022/09/03 04:57:33;;;;;;;9.23;8.93;;;12.40;99.90;;;;;;5001161;28;20321;-78
2022/09/03 05:00:00;;;;;;;9.27;8.97;;;12.40;99.90;;;;;;5001926;28;20236;-79
2022/09/03 05:02:28;;;;;;;9.37;9.07;;;12.40;99.90;;;;;;5001950;28;20296;-79
2022/09/03 05:04:56;;;;;;;9.40;9.10;;;12.40;99.90;;;;;;5001443;28;20263;-78
2022/09/03 05:07:37;;;;;;;9.50;9.20;;;12.40;99.90;;;;;;5000886;28;20284;-78
2022/09/03 05:10:15;;;;;;;9.40;9.10;;;12.40;99.90;;;;;;5000632;28;20267;-78
2022/09/03 05:12:42;;;;;;;9.70;9.40;;;12.50;99.90;;;;;;5001253;28;20237;-78
2022/09/03 05:15:12;;;;;;;9.47;9.17;;;12.50;99.90;;;;;;4999983;28;20243;-78
2022/09/03 05:17:41;;;;;;;9.40;9.10;;;12.50;99.90;;;;;;5001080;28;20229;-78
2022/09/03 05:20:10;;;;;;;9.70;9.40;;;12.50;99.90;;;;;;5000787;28;20345;-78
2022/09/03 05:22:48;;;;;;;9.83;9.53;;;12.50;99.90;;;;;;5001677;28;20288;-78
2022/09/03 05:25:16;;;;;;;9.50;9.20;;;12.60;99.90;;;;;;5008620;22;20286;-82
2022/09/03 05:27:48;;;;;;;9.27;8.97;;;12.60;99.90;;;;;;4978907;28;20234;-82
2022/09/03 05:30:16;;;;;;;9.63;9.33;;;12.60;99.90;;;;;;4979463;28;20314;-82
2022/09/03 05:32:46;;;;;;;9.50;9.20;;;12.70;99.90;;;;;;4979366;28;20272;-82
2022/09/03 05:35:16;;;;;;;9.40;9.10;;;12.70;99.90;;;;;;4978756;28;20293;-83
2022/09/03 05:37:54;;;;;;;9.30;9.00;;;12.80;99.90;;;;;;4978834;28;20241;-83
2022/09/03 05:40:24;;;;;;;9.47;9.17;;;12.80;99.90;;;;;;4979075;28;20230;-84
2022/09/03 05:43:02;;;;;;;9.60;9.30;;;12.90;99.90;;;;;;4978948;28;20238;-84
2022/09/03 05:45:31;;;;;;;9.50;9.20;;;12.90;99.90;;;;;;4978419;28;20248;-83
2022/09/03 05:48:01;;;;;;;9.73;9.43;;;12.90;99.90;;;;;;4978521;28;20289;-84
2022/09/03 05:50:30;;;;;;;9.63;9.33;;;12.90;99.90;;;;;;4979811;28;20239;-83
2022/09/03 05:53:02;;;;;;;9.70;9.40;;;12.90;99.90;;;;;;4979457;28;20233;-83
2022/09/03 05:55:29;;;;;;;9.40;9.10;;;13.00;99.90;;;;;;4978148;28;20769;-84
2022/09/03 05:57:59;;;;;;;9.37;9.07;;;13.10;99.90;;;;;;4979180;28;20289;-84
2022/09/03 06:00:28;;;;;;;9.60;9.30;;;13.20;99.90;;;;;;4979513;28;20237;-84
2022/09/03 06:02:57;;;;;;;9.70;9.40;;;13.30;99.90;;;;;;4979565;28;20234;-84
2022/09/03 06:05:26;;;;;;;9.53;9.23;;;13.40;99.90;;;;;;4998917;28;20233;-81
2022/09/03 06:07:56;;;;;;;9.50;9.20;;;13.50;99.90;;;;;;4999222;28;20233;-82
2022/09/03 06:10:34;;;;;;;9.73;9.43;;;13.60;99.90;;;;;;4989582;28;20233;-83
2022/09/03 06:13:03;;;;;;;9.70;9.40;;;13.60;99.90;;;;;;4979130;28;20931;-84
2022/09/03 06:15:33;;;;;;;9.80;9.50;;;13.70;99.90;;;;;;4978308;28;20241;-85
2022/09/03 06:18:02;;;;;;;9.60;9.30;;;13.80;99.90;;;;;;4979759;28;20272;-82
2022/09/03 06:20:32;;;;;;;9.60;9.30;;;13.80;99.90;;;;;;4989285;28;20235;-83
2022/09/03 06:23:02;;;;;;;10.00;9.70;;;13.90;99.90;;;;;;4982337;28;20425;-83
2022/09/03 06:25:39;;;;;;;9.90;9.60;;;14.00;99.90;;;;;;4981012;28;20248;-83
2022/09/03 06:28:09;;;;;;;10.10;9.80;;;14.10;99.90;;;;;;4980253;28;20248;-84
2022/09/03 06:30:40;;;;;;;10.10;9.80;;;14.20;99.90;;;;;;4979927;28;20261;-84
2022/09/03 06:33:08;;;;;;;10.38;10.07;;;14.30;99.90;;;;;;4979782;28;20283;-84
2022/09/03 06:35:40;;;;;;;10.02;9.73;;;14.40;99.90;;;;;;4978363;28;20331;-83
2022/09/03 06:38:11;;;;;;;10.00;9.70;;;14.50;99.90;;;;;;4979004;28;20285;-84
2022/09/03 06:40:41;;;;;;;10.30;10.00;;;14.50;99.90;;;;;;4979246;28;20325;-83
2022/09/03 06:43:10;;;;;;;9.80;9.50;;;14.50;99.90;;;;;;4979460;28;20281;-85
2022/09/03 06:45:37;;;;;;;10.20;9.90;;;14.50;99.90;;;;;;4979802;28;20239;-83
2022/09/03 06:48:07;;;;;;;10.65;10.35;;;14.60;99.90;;;;;;4980798;28;20233;-83
2022/09/03 06:50:36;;;;;;;10.50;10.20;;;14.80;99.90;;;;;;4980404;28;20254;-83
2022/09/03 06:53:05;;;;;;;10.50;10.20;;;14.90;99.90;;;;;;4978820;28;20257;-83
2022/09/03 06:55:38;;;;;;;10.73;10.43;;;15.10;99.90;;;;;;4981931;28;20234;-83
2022/09/03 06:58:16;;;;;;;10.85;10.55;;;15.30;99.90;;;;;;4998767;28;20213;-81
2022/09/03 07:00:44;;;;;;;10.73;10.43;;;15.40;99.90;;;;;;5002736;28;20232;-81
2022/09/03 07:03:11;;;;;;;10.50;10.20;;;15.50;99.90;;;;;;5002620;28;20229;-81
2022/09/03 07:05:42;;;;;;;10.60;10.30;;;15.60;99.90;;;;;;5001912;28;20234;-80
2022/09/03 07:08:10;;;;;;;10.48;10.18;;;15.80;99.90;;;;;;5001459;28;20252;-81
2022/09/03 07:10:42;;;;;;;10.90;10.60;;;15.90;99.90;;;;;;5001764;28;20245;-82
2022/09/03 07:13:13;;;;;;;10.80;10.50;;;16.00;99.90;;;;;;4988165;28;20226;-83
2022/09/03 07:15:41;;;;;;;10.80;10.50;;;16.00;99.90;;;;;;4983494;28;20241;-81
2022/09/03 07:18:08;;;;;;;11.13;10.82;;;16.20;99.90;;;;;;4981809;28;20233;-85
2022/09/03 07:20:38;;;;;;;11.00;10.70;;;16.30;99.90;;;;;;4981835;28;20233;-83
2022/09/03 07:23:07;;;;;;;10.80;10.50;;;16.50;99.90;;;;;;4981951;28;20237;-84
2022/09/03 07:25:36;;;;;;;10.88;10.57;;;16.60;99.90;;;;;;4980173;28;20348;-84
2022/09/03 07:28:06;;;;;;;10.82;10.52;;;16.70;99.90;;;;;;4980069;28;20317;-84
2022/09/03 07:30:38;;;;;;;10.60;10.30;;;16.70;99.90;;;;;;4981279;28;20233;-83
2022/09/03 07:33:06;;;;;;;10.77;10.48;;;16.70;99.90;;;;;;4980440;28;20773;-83
2022/09/03 07:35:37;;;;;;;10.70;10.40;;;16.70;99.90;;;;;;4980831;28;20245;-84
2022/09/03 07:38:05;;;;;;;10.63;10.32;;;16.80;99.90;;;;;;4980382;28;20313;-84
2022/09/03 07:40:33;;;;;;;10.57;10.27;;;16.80;99.90;;;;;;4981120;28;20249;-83
2022/09/03 07:43:03;;;;;;;10.68;10.38;;;16.90;99.90;;;;;;4981483;28;20289;-84
2022/09/03 07:45:32;;;;;;;10.40;10.10;;;17.00;99.90;;;;;;4980401;28;20296;-83
2022/09/03 07:48:10;;;;;;;10.68;10.38;;;17.20;99.90;;;;;;4980777;28;20289;-84
2022/09/03 07:50:40;;;;;;;10.73;10.43;;;17.40;99.90;;;;;;4981132;28;20316;-84
2022/09/03 07:53:09;;;;;;;10.75;10.45;;;17.50;99.90;;;;;;4981131;28;20233;-84
2022/09/03 07:55:39;;;;;;;10.88;10.57;;;17.60;99.90;;;;;;4979816;28;20253;-83
2022/09/03 07:58:09;;;;;;;10.70;10.40;;;17.70;99.90;;;;;;4980844;28;20229;-84
2022/09/03 08:00:38;;;;;;;10.55;10.25;;;17.80;99.90;;;;;;4981259;28;20240;-84
2022/09/03 08:03:16;;;;;;;11.00;10.70;;;17.90;99.90;;;;;;4982878;28;20233;-84
2022/09/03 08:05:45;;;;;;;10.52;10.23;;;18.10;99.90;;;;;;4980910;28;20297;-85
2022/09/03 08:08:14;;;;;;;10.68;10.38;;;18.10;99.90;;;;;;4975242;28;20233;-82
2022/09/03 08:10:44;;;;;;;10.48;10.18;;;18.20;99.90;;;;;;4979650;28;20233;-79
2022/09/03 08:13:13;;;;;;;10.80;10.50;;;18.30;99.90;;;;;;4980092;28;20237;-79
2022/09/03 08:15:43;;;;;;;10.98;10.68;;;18.30;99.90;;;;;;4979719;28;20241;-79
2022/09/03 08:18:21;;;;;;;11.00;10.70;;;18.20;99.90;;;;;;4981570;28;20249;-79
2022/09/03 08:20:51;;;;;;;10.90;10.60;;;18.20;99.90;;;;;;4981847;28;20693;-81
2022/09/03 08:23:20;;;;;;;10.90;10.60;;;18.30;99.90;;;;;;4981754;28;20253;-84
2022/09/03 08:25:51;;;;;;;11.10;10.80;;;18.30;99.90;;;;;;4979215;28;20337;-85
2022/09/03 08:28:19;;;;;;;10.98;10.68;;;18.30;99.90;;;;;;4979257;28;20229;-83
2022/09/03 08:30:49;;;;;;;10.82;10.52;;;18.50;99.90;;;;;;4982123;28;20255;-81
2022/09/03 08:36:34;;;;;;;10.30;10.00;;;18.70;99.90;;;;;;4978566;28;20994;-86
2022/09/03 08:39:08;;;;;;;10.50;10.20;;;18.70;99.90;;;;;;4980441;28;20341;-82
2022/09/03 08:42:10;;;;;;;10.30;10.00;;;18.70;99.90;;;;;;4981092;28;20284;-82
2022/09/03 08:44:47;;;;;;;10.40;10.10;;;18.60;99.90;;;;;;4979887;28;20241;-82
2022/09/03 08:47:23;;;;;;;10.25;9.95;;;18.60;99.90;;;;;;4991652;28;20297;-84
2022/09/03 08:50:47;;;;;;;9.93;9.63;;;18.60;99.90;;;;;;4994005;28;20248;-81
2022/09/03 08:53:24;;;;;;;10.55;10.25;;;18.60;99.90;;;;;;5000346;28;20244;-82
2022/09/03 08:55:55;;;;;;;10.40;10.10;;;18.60;99.90;;;;;;5000010;28;20529;-80
2022/09/03 08:58:32;;;;;;;10.32;10.02;;;18.50;99.90;;;;;;5001010;28;20233;-79
2022/09/03 09:01:11;;;;;;;10.38;10.07;;;18.50;99.90;;;;;;5001441;28;20209;-81
2022/09/03 09:06:49;;;;;;;10.40;10.10;;;18.70;99.90;;;;;;4978811;28;20229;-79
2022/09/03 09:09:31;;;;;;;10.10;9.80;;;18.70;99.90;;;;;;4983510;28;20229;-89
2022/09/03 09:22:17;;;;;;;10.15;9.85;;;19.00;99.90;;;;;;4969905;28;20297;-86
2022/09/03 09:25:13;;;;;;;10.55;10.25;;;19.30;99.90;;;;;;4978469;28;20242;-86
2022/09/03 09:28:02;;;;;;;10.27;9.98;;;19.70;99.90;;;;;;4978568;28;20238;-87
2022/09/03 09:30:37;;;;;;;10.50;10.20;;;20.10;99.90;;;;;;4964851;28;20245;-86
2022/09/03 10:00:41;;;;;;;10.20;9.90;;;22.30;99.90;;;;;;4855814;29;20280;-89
2022/09/03 10:03:28;;;;;;;10.23;9.93;;;22.30;99.90;;;;;;4946739;28;20292;-90
2022/09/03 11:26:55;;;;;;;10.88;10.57;;;25.30;99.90;;;;;;5025394;23;20248;-79
2022/09/03 11:29:36;;;;;;;10.70;10.40;;;25.30;99.90;;;;;;5003566;28;20244;-80
2022/09/03 11:32:14;;;;;;;10.80;10.50;;;25.30;99.90;;;;;;5003755;28;20323;-81
2022/09/03 11:37:31;;;;;;;10.77;10.48;;;25.20;99.90;;;;;;5002352;28;20225;-80
2022/09/03 11:42:47;;;;;;;10.65;10.35;;;25.10;99.90;;;;;;5003296;28;20243;-80
2022/09/03 11:45:34;;;;;;;10.52;10.23;;;25.30;99.90;;;;;;5001356;28;20237;-80
2022/09/03 11:48:34;;;;;;;10.40;10.10;;;25.40;99.90;;;;;;5003397;28;20237;-81
2022/09/03 11:51:02;;;;;;;10.35;10.05;;;25.50;99.90;;;;;;5002877;28;20228;-80
2022/09/03 11:53:38;;;;;;;10.48;10.18;;;25.40;99.90;;;;;;5002851;28;20296;-81
2022/09/03 11:56:19;;;;;;;10.40;10.10;;;25.20;99.90;;;;;;5002355;28;20268;-80
2022/09/03 11:58:47;;;;;;;10.35;10.05;;;25.30;99.90;;;;;;5002912;28;20236;-80
2022/09/03 12:01:18;;;;;;;10.70;10.40;;;25.30;99.90;;;;;;5002732;28;20256;-81
2022/09/03 12:03:53;;;;;;;10.80;10.50;;;25.50;99.90;;;;;;5002816;28;20228;-82
2022/09/03 12:06:50;;;;;;;10.80;10.50;;;25.40;99.90;;;;;;5002712;28;20243;-80
2022/09/03 12:10:03;;;;;;;10.60;10.30;;;25.20;99.90;;;;;;5004749;28;20237;-79
2022/09/03 12:12:50;;;;;;;10.55;10.25;;;25.10;99.90;;;;;;5006930;28;20233;-80
2022/09/03 12:15:37;;;;;;;10.77;10.48;;;25.00;99.90;;;;;;5003062;28;20236;-81
2022/09/03 12:18:22;;;;;;;10.73;10.43;;;24.80;99.90;;;;;;5003160;28;20256;-80
2022/09/03 12:21:11;;;;;;;10.90;10.60;;;24.70;99.90;;;;;;5003382;28;20327;-79
2022/09/03 12:23:47;;;;;;;10.70;10.40;;;24.70;99.90;;;;;;5004888;28;20237;-79
2022/09/03 12:26:19;;;;;;;10.60;10.30;;;24.70;99.90;;;;;;5004182;28;20279;-80
2022/09/03 12:28:50;;;;;;;10.50;10.20;;;24.70;99.90;;;;;;5009649;28;20248;-79
2022/09/03 12:34:22;;;;;;;10.50;10.20;;;25.20;99.90;;;;;;5204132;27;20516;-79
2022/09/03 12:36:53;;;;;;;10.50;10.20;;;25.70;99.90;;;;;;5161435;27;20230;-79
2022/09/03 12:39:23;;;;;;;10.45;10.15;;;26.00;99.90;;;;;;5160990;27;20230;-79
2022/09/03 12:42:02;;;;;;;10.40;10.10;;;26.40;99.90;;;;;;5160703;27;20234;-81
2022/09/03 12:44:32;;;;;;;10.80;10.50;;;26.60;99.90;;;;;;5160037;27;20235;-80
2022/09/03 12:47:09;;;;;;;10.95;10.65;;;26.80;99.90;;;;;;5159837;27;20321;-80
2022/09/03 12:49:47;;;;;;;11.10;10.80;;;27.10;99.90;;;;;;5160420;27;20254;-80
2022/09/03 12:52:25;;;;;;;10.98;10.68;;;27.20;99.90;;;;;;5160587;27;20291;-80
2022/09/03 12:54:57;;;;;;;10.63;10.32;;;27.20;99.90;;;;;;5159433;27;20252;-80
2022/09/03 12:57:31;;;;;;;10.70;10.40;;;27.30;99.90;;;;;;5160355;27;20262;-79
2022/09/03 13:00:04;;;;;;;10.75;10.45;;;27.00;99.90;;;;;;5159519;27;20234;-80
2022/09/03 13:02:49;;;;;;;10.80;10.50;;;26.70;99.90;;;;;;5160400;27;20223;-80
2022/09/03 13:05:26;;;;;;;10.80;10.50;;;26.40;99.90;;;;;;5158587;27;20227;-79
2022/09/03 13:07:59;;;;;;;11.00;10.70;;;25.80;99.90;;;;;;5159494;27;20238;-80
2022/09/03 13:10:36;;;;;;;11.02;10.73;;;25.50;99.90;;;;;;5159084;27;20203;-80
2022/09/03 13:13:22;;;;;;;10.90;10.60;;;25.30;99.90;;;;;;5158988;27;20233;-80
2022/09/03 13:16:26;;;;;;;11.00;10.70;;;25.20;99.90;;;;;;5159792;27;20230;-80
2022/09/03 13:19:05;;;;;;;10.55;10.25;;;25.10;99.90;;;;;;5160106;27;20758;-79
2022/09/03 13:21:49;;;;;;;10.50;10.20;;;24.90;99.90;;;;;;5159708;27;20229;-80
2022/09/03 13:24:49;;;;;;;10.80;10.50;;;24.60;99.90;;;;;;5158845;27;20283;-81
2022/09/03 13:27:26;;;;;;;10.65;10.35;;;24.40;99.90;;;;;;5157200;27;20227;-79
2022/09/03 13:30:05;;;;;;;10.63;10.32;;;24.20;99.90;;;;;;5158622;27;20231;-79
2022/09/03 13:32:44;;;;;;;10.60;10.30;;;24.20;99.90;;;;;;5157635;27;20246;-79
2022/09/03 13:35:21;;;;;;;10.55;10.25;;;24.00;99.90;;;;;;5156967;27;20231;-78
2022/09/03 13:38:00;;;;;;;10.90;10.60;;;24.00;99.90;;;;;;5158326;27;20287;-78
2022/09/03 13:40:38;;;;;;;10.52;10.23;;;23.90;99.90;;;;;;5157894;27;20223;-79
2022/09/03 13:43:25;;;;;;;10.52;10.23;;;23.80;99.90;;;;;;5157615;27;20231;-79
2022/09/03 13:46:03;;;;;;;10.30;10.00;;;23.80;99.90;;;;;;5143076;27;20221;-79
2022/09/03 13:51:28;;;;;;;10.35;10.05;;;23.80;99.90;;;;;;5144414;27;20224;-80
2022/09/03 13:54:14;;;;;;;10.55;10.25;;;23.80;99.90;;;;;;5144928;27;20220;-80
2022/09/03 13:57:03;;;;;;;10.80;10.50;;;23.90;99.90;;;;;;5144148;27;20215;-80
2022/09/03 13:59:43;;;;;;;10.57;10.27;;;24.00;99.90;;;;;;5144549;27;20224;-80
2022/09/03 14:02:28;;;;;;;10.55;10.25;;;24.10;99.90;;;;;;5144135;27;20258;-80
2022/09/03 14:05:06;;;;;;;10.80;10.50;;;24.10;99.90;;;;;;5144024;27;20319;-80
2022/09/03 14:07:54;;;;;;;10.40;10.10;;;24.10;99.90;;;;;;5152082;27;20227;-80
2022/09/03 14:10:51;;;;;;;10.65;10.35;;;24.10;99.90;;;;;;5145866;27;20272;-80
2022/09/03 14:13:38;;;;;;;10.60;10.30;;;24.00;99.90;;;;;;5152823;27;20258;-80
2022/09/03 14:16:13;;;;;;;10.43;10.13;;;24.00;99.90;;;;;;5157253;27;20228;-81
2022/09/03 14:18:51;;;;;;;10.63;10.32;;;24.00;99.90;;;;;;5147020;27;20249;-79
2022/09/03 14:21:23;;;;;;;10.57;10.27;;;24.00;99.90;;;;;;5145819;27;20255;-80
2022/09/03 14:24:02;;;;;;;10.80;10.50;;;23.80;99.90;;;;;;5145108;27;20228;-80
2022/09/03 14:26:47;;;;;;;10.60;10.30;;;23.80;99.90;;;;;;5143944;27;20331;-80
2022/09/03 14:29:17;;;;;;;10.60;10.30;;;23.70;99.90;;;;;;5145118;27;20302;-80
2022/09/03 14:32:22;;;;;;;10.60;10.30;;;23.40;99.90;;;;;;5144683;27;20224;-81
2022/09/03 14:35:18;;;;;;;10.77;10.48;;;23.20;99.90;;;;;;5143658;27;20242;-80
2022/09/03 14:38:14;;;;;;;10.77;10.48;;;23.20;99.90;;;;;;5144388;27;20311;-80
2022/09/03 14:40:46;;;;;;;10.60;10.30;;;23.00;99.90;;;;;;5144146;27;20225;-80
2022/09/03 14:44:14;;;;;;;10.45;10.15;;;22.80;99.90;;;;;;5144030;27;20239;-80
2022/09/03 14:47:03;;;;;;;10.60;10.30;;;22.70;99.90;;;;;;5079515;28;20293;-80
2022/09/03 14:49:54;;;;;;;11.00;10.70;;;22.60;99.90;;;;;;5079237;28;20347;-80
2022/09/03 14:53:05;;;;;;;10.50;10.20;;;22.50;99.90;;;;;;5131890;27;20254;-80
2022/09/03 14:56:07;;;;;;;10.60;10.30;;;22.40;99.90;;;;;;5141739;27;20250;-80
2022/09/03 14:59:10;;;;;;;10.80;10.50;;;22.40;99.90;;;;;;5142993;27;20330;-79
2022/09/03 15:01:41;;;;;;;10.63;10.32;;;22.30;99.90;;;;;;5141366;27;20227;-80
2022/09/03 15:04:45;;;;;;;10.52;10.23;;;22.30;99.90;;;;;;5143957;27;20220;-79
2022/09/03 15:07:34;;;;;;;10.50;10.20;;;22.40;99.90;;;;;;5143837;27;20234;-81
2022/09/03 15:10:20;;;;;;;10.55;10.25;;;22.30;99.90;;;;;;5144213;27;20258;-81
2022/09/03 15:12:58;;;;;;;10.60;10.30;;;22.30;99.90;;;;;;5143731;27;20245;-78
2022/09/03 15:15:53;;;;;;;10.45;10.15;;;22.20;99.90;;;;;;5143529;27;20232;-79
2022/09/03 15:18:31;;;;;;;10.45;10.15;;;22.10;99.90;;;;;;5144388;27;20231;-81
2022/09/03 15:21:09;;;;;;;10.50;10.20;;;22.10;99.90;;;;;;5144644;27;20326;-82
2022/09/03 15:23:56;;;;;;;10.38;10.07;;;22.00;99.90;;;;;;5144455;27;20231;-80
2022/09/03 15:27:02;;;;;;;10.40;10.10;;;22.00;99.90;;;;;;5141634;27;20330;-79
2022/09/03 15:29:50;;;;;;;10.05;9.75;;;22.00;99.90;;;;;;5143730;27;20255;-80
2022/09/03 15:32:36;;;;;;;10.07;9.77;;;21.90;99.90;;;;;;5142906;27;20240;-80
2022/09/03 15:35:14;;;;;;;10.20;9.90;;;21.80;99.90;;;;;;5142586;27;20249;-79
2022/09/03 15:37:53;;;;;;;10.02;9.73;;;21.70;99.90;;;;;;5143118;27;20223;-80
2022/09/03 15:40:29;;;;;;;10.13;9.82;;;21.70;99.90;;;;;;5143383;27;20230;-80
2022/09/03 15:43:08;;;;;;;10.38;10.07;;;21.70;99.90;;;;;;5142732;27;20996;-79
2022/09/03 15:45:40;;;;;;;10.43;10.13;;;21.60;99.90;;;;;;5143194;27;20318;-79
2022/09/03 15:48:33;;;;;;;10.40;10.10;;;21.60;99.90;;;;;;5144286;27;20312;-79
2022/09/03 15:51:13;;;;;;;10.40;10.10;;;21.60;99.90;;;;;;5143259;27;20238;-80